createdAt,value
2019-05-08T00:00:58.594Z,10.00
2019-05-08T00:03:32.967Z,9.90
2019-05-08T00:06:03.268Z,9.80
2019-05-08T00:08:33.956Z,9.80
2019-05-08T00:11:04.444Z,9.80
2019-05-08T00:13:35.027Z,9.80
2019-05-08T00:16:12.682Z,9.80
2019-05-08T00:18:43.020Z,9.80
2019-05-08T00:21:14.593Z,9.80
2019-05-08T00:23:45.109Z,9.80
2019-05-08T00:26:15.668Z,9.70
2019-05-08T00:28:46.171Z,9.60
2019-05-08T00:31:26.000Z,9.60
2019-05-08T00:34:03.523Z,9.60
2019-05-08T00:36:35.912Z,9.50
2019-05-08T00:39:07.823Z,9.50
2019-05-08T00:41:38.424Z,9.50
2019-05-08T00:44:08.940Z,9.40
2019-05-08T00:46:39.848Z,9.40
2019-05-08T00:49:12.842Z,9.40
2019-05-08T00:51:44.529Z,9.50
2019-05-08T00:54:18.723Z,9.40
2019-05-08T00:57:01.941Z,9.40
2019-05-08T00:59:45.210Z,9.50
2019-05-08T01:02:33.434Z,9.50
2019-05-08T01:05:04.196Z,9.50
2019-05-08T01:07:35.634Z,9.50
2019-05-08T01:10:06.721Z,9.50
2019-05-08T01:12:37.384Z,9.50
2019-05-08T01:15:13.156Z,9.40
2019-05-08T01:17:44.046Z,9.40
2019-05-08T01:20:14.707Z,9.40
2019-05-08T01:22:45.323Z,9.40
2019-05-08T01:25:16.002Z,9.40
2019-05-08T01:27:52.244Z,9.40
2019-05-08T01:30:24.115Z,9.40
2019-05-08T01:32:55.602Z,9.50
2019-05-08T01:35:26.189Z,9.60
2019-05-08T01:38:22.780Z,9.60
2019-05-08T01:41:06.378Z,9.70
2019-05-08T01:43:37.134Z,9.70
2019-05-08T01:46:07.800Z,9.70
2019-05-08T01:48:41.873Z,9.60
2019-05-08T01:51:12.303Z,9.50
2019-05-08T01:53:43.096Z,9.40
2019-05-08T01:56:14.260Z,9.60
2019-05-08T01:58:46.034Z,9.50
2019-05-08T02:01:18.261Z,9.50
2019-05-08T02:03:48.797Z,9.60
2019-05-08T02:06:22.692Z,9.50
2019-05-08T02:08:52.568Z,9.50
2019-05-08T02:11:23.123Z,9.50
2019-05-08T02:13:55.840Z,9.40
2019-05-08T02:16:27.499Z,9.40
2019-05-08T02:19:01.878Z,9.50
2019-05-08T02:21:38.608Z,9.40
2019-05-08T02:24:14.310Z,9.50
2019-05-08T02:27:19.183Z,9.50
2019-05-08T02:29:49.914Z,9.50
2019-05-08T02:32:23.626Z,9.60
2019-05-08T02:34:53.994Z,9.70
2019-05-08T02:37:30.292Z,9.80
2019-05-08T02:40:02.226Z,9.80
2019-05-08T02:42:34.923Z,9.80
2019-05-08T02:45:06.961Z,9.80
2019-05-08T02:47:41.016Z,9.70
2019-05-08T02:50:11.184Z,9.80
2019-05-08T02:52:41.863Z,9.80
2019-05-08T02:55:12.834Z,9.80
2019-05-08T02:57:43.378Z,9.80
2019-05-08T03:00:21.010Z,9.80
2019-05-08T03:03:11.933Z,9.70
2019-05-08T03:05:43.572Z,9.70
2019-05-08T03:08:14.486Z,9.60
2019-05-08T03:10:45.415Z,9.60
2019-05-08T03:13:16.071Z,9.70
2019-05-08T03:15:50.608Z,9.60
2019-05-08T03:18:21.676Z,9.70
2019-05-08T03:20:52.172Z,9.70
2019-05-08T03:23:23.923Z,9.70
2019-05-08T03:26:20.254Z,9.80
2019-05-08T03:29:06.411Z,9.70
2019-05-08T03:31:25.579Z,9.70
2019-05-08T03:33:56.416Z,9.60
2019-05-08T03:36:52.895Z,9.70
2019-05-08T03:39:20.922Z,9.60
2019-05-08T03:41:51.722Z,9.70
2019-05-08T03:44:22.334Z,9.70
2019-05-08T03:47:14.625Z,9.70
2019-05-08T03:49:49.765Z,9.70
2019-05-08T03:52:22.355Z,9.70
2019-05-08T03:54:53.182Z,9.80
2019-05-08T03:57:47.353Z,9.80
2019-05-08T04:00:15.431Z,9.80
2019-05-08T04:02:45.905Z,9.90
2019-05-08T04:05:16.450Z,9.80
2019-05-08T04:07:51.125Z,9.80
2019-05-08T04:10:21.432Z,9.70
2019-05-08T04:12:52.109Z,9.70
2019-05-08T04:15:40.588Z,9.70
2019-05-08T04:18:11.126Z,9.70
2019-05-08T04:20:42.183Z,9.70
2019-05-08T04:23:13.885Z,9.80
2019-05-08T04:25:50.045Z,9.80
2019-05-08T04:28:21.315Z,9.80
2019-05-08T04:30:54.348Z,9.80
2019-05-08T04:33:25.299Z,9.80
2019-05-08T04:35:55.765Z,9.80
2019-05-08T04:38:26.308Z,9.80
2019-05-08T04:41:01.038Z,9.80
2019-05-08T04:43:34.713Z,9.80
2019-05-08T04:46:12.042Z,9.40
2019-05-08T04:48:42.618Z,9.20
2019-05-08T04:51:15.307Z,9.10
2019-05-08T04:53:52.175Z,9.00
2019-05-08T04:56:32.565Z,8.80
2019-05-08T04:59:03.989Z,8.80
2019-05-08T05:01:36.359Z,8.60
2019-05-08T05:04:09.978Z,8.60
2019-05-08T05:06:40.969Z,8.80
2019-05-08T05:09:11.680Z,8.70
2019-05-08T05:11:42.483Z,8.60
2019-05-08T05:14:14.895Z,8.60
2019-05-08T05:16:49.549Z,8.60
2019-05-08T05:19:19.276Z,8.70
2019-05-08T05:21:53.105Z,8.70
2019-05-08T05:24:25.374Z,8.80
2019-05-08T05:26:55.970Z,8.80
2019-05-08T05:29:29.402Z,8.80
2019-05-08T05:31:59.933Z,8.90
2019-05-08T05:34:30.896Z,8.90
2019-05-08T05:37:01.350Z,8.80
2019-05-08T05:39:39.485Z,8.80
2019-05-08T05:42:20.926Z,8.90
2019-05-08T05:44:51.490Z,8.90
2019-05-08T05:47:25.891Z,8.90
2019-05-08T05:49:56.415Z,8.90
2019-05-08T05:52:29.956Z,8.90
2019-05-08T05:55:00.661Z,9.00
2019-05-08T05:57:31.268Z,9.00
2019-05-08T06:00:03.155Z,9.10
2019-05-08T06:02:34.109Z,9.10
2019-05-08T06:05:06.770Z,9.10
2019-05-08T06:07:39.717Z,9.10
2019-05-08T06:10:10.263Z,9.20
2019-05-08T06:12:40.947Z,9.20
2019-05-08T06:15:12.744Z,9.20
2019-05-08T06:17:52.014Z,9.20
2019-05-08T06:20:22.891Z,9.20
2019-05-08T06:22:55.393Z,9.20
2019-05-08T06:25:25.709Z,9.20
2019-05-08T06:27:56.483Z,9.20
2019-05-08T06:30:29.685Z,9.30
2019-05-08T06:33:00.250Z,9.30
2019-05-08T06:35:32.755Z,9.40
2019-05-08T06:38:04.346Z,9.40
2019-05-08T06:40:34.871Z,9.50
2019-05-08T06:43:12.893Z,9.60
2019-05-08T06:46:03.024Z,9.60
2019-05-08T06:48:33.948Z,9.70
2019-05-08T06:51:04.567Z,9.70
2019-05-08T06:53:39.868Z,9.70
2019-05-08T06:56:11.762Z,9.70
2019-05-08T06:58:42.307Z,9.70
2019-05-08T07:01:16.390Z,9.80
2019-05-08T07:03:50.241Z,9.80
2019-05-08T07:06:21.231Z,9.90
2019-05-08T07:08:51.886Z,10.00
2019-05-08T07:11:23.525Z,10.10
2019-05-08T07:13:55.209Z,10.10
2019-05-08T07:16:49.528Z,10.20
2019-05-08T07:19:29.331Z,10.30
2019-05-08T07:22:39.496Z,10.30
2019-05-08T07:25:09.723Z,10.40
2019-05-08T07:27:42.773Z,10.60
2019-05-08T07:30:30.588Z,10.70
2019-05-08T07:33:01.080Z,10.70
2019-05-08T07:35:31.755Z,10.80
2019-05-08T07:38:04.093Z,10.90
2019-05-08T07:40:34.618Z,10.90
2019-05-08T07:43:05.280Z,11.00
2019-05-08T07:45:35.912Z,11.00
2019-05-08T07:48:06.958Z,11.10
2019-05-08T07:50:39.149Z,11.20
2019-05-08T07:53:11.670Z,11.20
2019-05-08T07:55:42.162Z,11.20
2019-05-08T07:58:12.762Z,11.20
2019-05-08T08:00:47.082Z,11.20
2019-05-08T08:03:33.785Z,11.20
2019-05-08T08:06:35.778Z,11.20
2019-05-08T08:09:05.792Z,11.20
2019-05-08T08:11:36.642Z,11.30
2019-05-08T08:14:10.095Z,11.30
2019-05-08T08:16:51.895Z,11.30
2019-05-08T08:19:22.747Z,11.30
2019-05-08T08:21:53.408Z,11.30
2019-05-08T08:24:23.925Z,11.40
2019-05-08T08:26:54.642Z,11.40
2019-05-08T08:29:45.734Z,11.50
2019-05-08T08:32:16.376Z,11.50
2019-05-08T08:34:47.046Z,11.50
2019-05-08T08:37:19.703Z,11.40
2019-05-08T08:39:49.844Z,11.40
2019-05-08T08:42:20.400Z,11.40
2019-05-08T08:44:52.653Z,11.50
2019-05-08T08:47:36.392Z,11.60
2019-05-08T08:50:12.865Z,11.70
2019-05-08T08:53:11.408Z,11.80
2019-05-08T08:55:42.507Z,11.80
2019-05-08T08:58:12.984Z,11.90
2019-05-08T09:00:43.788Z,12.00
2019-05-08T09:03:14.333Z,12.10
2019-05-08T09:05:44.853Z,12.20
2019-05-08T09:08:15.393Z,12.30
2019-05-08T09:10:45.848Z,12.40
2019-05-08T09:13:19.195Z,12.40
2019-05-08T09:15:49.207Z,12.40
2019-05-08T09:18:19.897Z,12.50
2019-05-08T09:20:50.503Z,12.50
2019-05-08T09:23:20.973Z,12.60
2019-05-08T09:25:51.448Z,12.60
2019-05-08T09:28:21.984Z,12.60
2019-05-08T09:31:19.765Z,12.60
2019-05-08T09:33:51.301Z,12.60
2019-05-08T09:36:25.236Z,12.50
2019-05-08T09:38:54.675Z,12.50
2019-05-08T09:41:25.171Z,12.40
2019-05-08T09:43:55.667Z,12.40
2019-05-08T09:46:26.146Z,12.30
2019-05-08T09:48:59.136Z,12.20
2019-05-08T09:51:29.693Z,12.20
2019-05-08T09:54:04.512Z,12.20
2019-05-08T09:56:35.012Z,12.10
2019-05-08T09:59:05.506Z,12.10
2019-05-08T10:01:35.964Z,12.00
2019-05-08T10:04:10.057Z,11.90
2019-05-08T10:06:40.770Z,11.90
2019-05-08T10:09:31.140Z,11.90
2019-05-08T10:12:03.041Z,11.90
2019-05-08T10:14:35.504Z,12.00
2019-05-08T10:17:10.191Z,11.90
2019-05-08T10:19:40.230Z,11.90
2019-05-08T10:22:10.752Z,11.90
2019-05-08T10:24:41.589Z,12.00
2019-05-08T10:27:12.149Z,12.10
2019-05-08T10:29:42.654Z,12.20
2019-05-08T10:32:13.194Z,12.20
2019-05-08T10:34:43.693Z,12.30
2019-05-08T10:41:01.717Z,12.50
2019-05-08T10:43:33.771Z,12.60
2019-05-08T10:46:05.191Z,12.60
2019-05-08T10:48:36.599Z,12.70
2019-05-08T10:51:10.206Z,12.70
2019-05-08T10:53:41.735Z,12.70
2019-05-08T10:56:12.195Z,12.80
2019-05-08T10:58:44.104Z,12.80
2019-05-08T11:01:16.388Z,12.90
2019-05-08T11:03:49.190Z,13.00
2019-05-08T11:06:32.539Z,12.90
2019-05-08T11:09:21.910Z,12.90
2019-05-08T11:12:12.303Z,12.90
2019-05-08T11:14:43.121Z,13.00
2019-05-08T11:17:14.355Z,13.20
2019-05-08T11:19:44.909Z,13.30
2019-05-08T11:22:15.393Z,13.40
2019-05-08T11:24:45.799Z,13.40
2019-05-08T11:27:17.272Z,13.50
2019-05-08T11:29:50.065Z,13.50
2019-05-08T11:32:20.831Z,13.50
2019-05-08T11:34:51.602Z,13.40
2019-05-08T11:37:22.049Z,13.40
2019-05-08T11:39:52.741Z,13.40
2019-05-08T11:45:39.364Z,13.40
2019-05-08T11:48:10.990Z,13.30
2019-05-08T11:50:41.774Z,13.20
2019-05-08T11:53:12.243Z,13.20
2019-05-08T11:55:42.757Z,13.20
2019-05-08T11:58:13.242Z,13.20
2019-05-08T12:00:43.702Z,13.30
2019-05-08T12:03:14.419Z,13.30
2019-05-08T12:09:05.001Z,13.50
2019-05-08T12:11:50.258Z,13.60
2019-05-08T12:14:32.297Z,13.80
2019-05-08T12:17:37.882Z,13.80
2019-05-08T12:20:42.357Z,13.90
2019-05-08T12:27:00.356Z,13.70
2019-05-08T12:30:29.503Z,13.70
2019-05-08T12:33:40.126Z,13.70
2019-05-08T12:36:49.907Z,13.80
2019-05-08T12:39:59.803Z,13.80
2019-05-08T12:49:40.822Z,13.80
2019-05-08T12:52:50.226Z,13.90
2019-05-08T12:56:21.944Z,13.80
2019-05-08T12:59:30.357Z,13.80
2019-05-08T13:02:40.371Z,13.80
2019-05-08T13:05:22.917Z,13.80
2019-05-08T13:08:04.731Z,13.80
2019-05-08T13:10:46.913Z,13.80
2019-05-08T13:13:28.913Z,13.70
2019-05-08T13:16:11.162Z,13.70
2019-05-08T13:18:53.114Z,13.60
2019-05-08T13:21:34.994Z,13.60
2019-05-08T13:24:19.201Z,13.60
2019-05-08T13:27:00.320Z,13.50
2019-05-08T13:39:31.529Z,13.30
2019-05-08T13:42:40.063Z,13.30
2019-05-08T13:52:40.448Z,13.20
2019-05-08T13:55:49.801Z,13.20
2019-05-08T14:02:15.038Z,13.20
2019-05-08T14:05:23.962Z,13.10
2019-05-08T14:08:30.716Z,13.10
2019-05-08T14:14:54.066Z,13.10
2019-05-08T14:17:43.574Z,13.10
2019-05-08T14:27:21.008Z,13.00
2019-05-08T14:30:30.841Z,12.90
2019-05-08T14:33:59.480Z,12.90
2019-05-08T14:36:48.961Z,12.90
2019-05-08T14:46:10.072Z,12.80
2019-05-08T14:49:12.447Z,12.80
2019-05-08T14:51:54.262Z,12.80
2019-05-08T14:54:36.814Z,12.80
2019-05-08T14:57:19.996Z,12.80
2019-05-08T15:00:02.632Z,12.80
2019-05-08T15:02:44.985Z,12.80
2019-05-08T15:05:29.669Z,12.80
2019-05-08T15:08:11.614Z,12.80
2019-05-08T15:10:53.529Z,12.80
2019-05-08T15:13:35.751Z,12.90
2019-05-08T15:16:20.247Z,12.90
2019-05-08T15:19:03.531Z,12.90
2019-05-08T15:21:45.395Z,12.80
2019-05-08T15:24:29.560Z,12.90
2019-05-08T15:27:10.853Z,12.90
2019-05-08T15:30:11.714Z,12.90
2019-05-08T15:33:12.691Z,12.90
2019-05-08T15:36:09.157Z,12.90
2019-05-08T15:38:40.575Z,13.00
2019-05-08T15:41:22.039Z,12.90
2019-05-08T15:44:04.506Z,12.90
2019-05-08T15:47:05.427Z,12.80
2019-05-08T15:50:06.973Z,12.80
2019-05-08T15:52:49.791Z,12.80
2019-05-08T15:55:41.630Z,12.80
2019-05-08T16:02:04.939Z,13.00
2019-05-08T16:24:24.502Z,12.80
2019-05-08T16:31:01.883Z,12.80
2019-05-08T16:34:30.468Z,12.90
2019-05-08T16:37:20.472Z,12.80
2019-05-08T16:49:54.297Z,12.80
2019-05-08T16:52:36.548Z,12.80
2019-05-08T16:55:18.510Z,12.80
2019-05-08T16:58:02.892Z,12.80
2019-05-08T17:00:44.582Z,12.80
2019-05-08T17:03:26.323Z,12.80
2019-05-08T17:06:08.218Z,12.70
2019-05-08T17:08:49.959Z,12.70
2019-05-08T17:11:33.691Z,12.70
2019-05-08T17:14:17.960Z,12.70
2019-05-08T17:16:59.707Z,12.70
2019-05-08T17:19:43.354Z,12.70
2019-05-08T17:22:32.943Z,12.70
2019-05-08T17:25:35.079Z,12.80
2019-05-08T17:31:54.170Z,12.80
2019-05-08T17:34:36.220Z,12.70
2019-05-08T17:37:37.367Z,12.60
2019-05-08T17:40:23.408Z,12.50
2019-05-08T17:43:05.368Z,12.50
2019-05-08T17:45:47.735Z,12.50
2019-05-08T17:48:29.721Z,12.40
2019-05-08T17:51:13.331Z,12.40
2019-05-08T17:53:56.742Z,12.40
2019-05-08T17:56:38.551Z,12.40
2019-05-08T17:59:20.443Z,12.40
2019-05-08T18:02:04.862Z,12.30
2019-05-08T18:04:47.482Z,12.40
2019-05-08T18:07:33.621Z,12.40
2019-05-08T18:10:13.635Z,12.30
2019-05-08T18:13:03.643Z,12.30
2019-05-08T18:15:58.370Z,12.40
2019-05-08T18:18:44.273Z,12.40
2019-05-08T18:21:44.891Z,12.40
2019-05-08T18:24:34.200Z,12.40
2019-05-08T18:27:36.168Z,12.40
2019-05-08T18:33:59.221Z,12.30
2019-05-08T18:36:43.242Z,12.30
2019-05-08T18:39:25.886Z,12.40
2019-05-08T18:42:07.745Z,12.40
2019-05-08T18:44:50.158Z,12.40
2019-05-08T18:47:33.818Z,12.40
2019-05-08T18:50:16.087Z,12.40
2019-05-08T18:56:20.026Z,12.30
2019-05-08T18:59:21.683Z,12.30
2019-05-08T19:02:04.262Z,12.30
2019-05-08T19:04:46.940Z,12.30
2019-05-08T19:07:28.805Z,12.50
2019-05-08T19:10:13.035Z,12.50
2019-05-08T19:12:54.590Z,12.50
2019-05-08T19:15:36.889Z,12.50
2019-05-08T19:18:19.525Z,12.50
2019-05-08T19:24:23.323Z,12.60
2019-05-08T19:27:05.886Z,12.50
2019-05-08T19:29:48.645Z,12.60
2019-05-08T19:32:33.304Z,12.60
2019-05-08T19:35:14.747Z,12.50
2019-05-08T19:37:56.638Z,12.40
2019-05-08T19:40:57.518Z,12.30
2019-05-08T19:43:40.805Z,12.40
2019-05-08T19:46:24.417Z,12.30
2019-05-08T19:49:09.465Z,12.30
2019-05-08T19:51:50.017Z,12.30
2019-05-08T19:54:33.969Z,12.30
2019-05-08T19:57:16.013Z,12.10
2019-05-08T19:59:58.754Z,12.10
2019-05-08T20:02:43.579Z,12.10
2019-05-08T20:05:26.178Z,12.00
2019-05-08T20:08:08.498Z,12.10
2019-05-08T20:10:50.521Z,11.90
2019-05-08T20:13:34.135Z,11.80
2019-05-08T20:16:16.628Z,11.70
2019-05-08T20:22:00.555Z,11.50
2019-05-08T20:24:43.599Z,11.50
2019-05-08T20:27:26.121Z,11.50
2019-05-08T20:30:08.102Z,11.50
2019-05-08T20:32:50.273Z,11.40
2019-05-08T20:35:33.121Z,11.30
2019-05-08T20:38:16.505Z,11.30
2019-05-08T20:40:58.575Z,11.40
2019-05-08T20:43:40.946Z,11.40
2019-05-08T20:46:23.033Z,11.30
2019-05-08T20:49:04.955Z,11.20
2019-05-08T20:51:46.901Z,11.20
2019-05-08T20:54:29.421Z,11.20
2019-05-08T20:57:30.111Z,11.20
2019-05-08T21:00:33.266Z,11.30
2019-05-08T21:03:15.073Z,11.30
2019-05-08T21:05:57.178Z,11.40
2019-05-08T21:08:38.917Z,11.30
2019-05-08T21:11:24.469Z,11.20
2019-05-08T21:14:06.861Z,11.20
2019-05-08T21:16:49.481Z,11.30
2019-05-08T21:19:31.361Z,11.30
2019-05-08T21:22:19.784Z,11.20
2019-05-08T21:25:04.191Z,11.20
2019-05-08T21:27:46.242Z,11.10
2019-05-08T21:30:28.083Z,11.00
2019-05-08T21:33:09.977Z,10.90
2019-05-08T21:35:54.214Z,10.90
2019-05-08T21:38:35.914Z,11.00
2019-05-08T21:41:18.103Z,10.90
2019-05-08T21:44:00.044Z,10.90
2019-05-08T21:46:43.341Z,10.80
2019-05-08T21:49:25.427Z,10.80
2019-05-08T21:52:07.994Z,10.90
2019-05-08T21:54:49.911Z,10.90
2019-05-08T21:57:33.430Z,10.90
2019-05-08T22:00:14.233Z,10.90
2019-05-08T22:12:35.495Z,10.60
2019-05-08T22:15:44.452Z,10.60
2019-05-08T22:22:07.854Z,10.70
2019-05-08T22:24:57.324Z,10.90
2019-05-08T22:28:25.305Z,11.00
2019-05-08T22:31:14.725Z,11.00
2019-05-08T22:34:44.092Z,10.90
2019-05-08T22:41:13.150Z,10.50
2019-05-08T22:47:36.392Z,10.30
2019-05-08T22:57:04.011Z,10.30
2019-05-08T22:59:45.733Z,10.50
2019-05-08T23:02:27.477Z,10.50
2019-05-08T23:05:09.413Z,10.40
2019-05-08T23:07:53.060Z,10.50
2019-05-08T23:10:36.433Z,10.40
2019-05-08T23:13:19.682Z,10.20
2019-05-08T23:16:02.225Z,10.10
2019-05-08T23:18:44.343Z,10.10
2019-05-08T23:21:26.629Z,10.20
2019-05-08T23:24:08.944Z,10.20
2019-05-08T23:26:50.974Z,10.20
2019-05-08T23:29:33.942Z,10.20
2019-05-08T23:32:16.107Z,10.20
2019-05-08T23:35:03.732Z,10.20
2019-05-08T23:38:05.809Z,10.30
2019-05-08T23:40:48.132Z,10.20
2019-05-08T23:43:49.178Z,10.20
2019-05-08T23:46:33.984Z,10.20
2019-05-08T23:49:15.901Z,10.10
2019-05-08T23:51:57.715Z,10.10
2019-05-08T23:54:39.723Z,10.10
2019-05-08T23:57:24.044Z,10.10
